sensor_id;sensor_type;location;lat;lon;timestamp;temperature;humidity
1411;DHT22;700;51.906;8.404;2023-05-27T00:04:28;13.00;99.90
1411;DHT22;700;51.906;8.404;2023-05-27T00:09:29;13.00;99.90
1411;DHT22;700;51.906;8.404;2023-05-27T00:14:29;13.00;99.90
1411;DHT22;700;51.906;8.404;2023-05-27T00:19:32;13.00;99.90
1411;DHT22;700;51.906;8.404;2023-05-27T00:24:35;12.90;99.90
1411;DHT22;700;51.906;8.404;2023-05-27T00:29:39;12.90;99.90
1411;DHT22;700;51.906;8.404;2023-05-27T00:34:40;12.80;99.90
1411;DHT22;700;51.906;8.404;2023-05-27T00:39:40;12.80;99.90
1411;DHT22;700;51.906;8.404;2023-05-27T00:44:41;12.90;99.90
1411;DHT22;700;51.906;8.404;2023-05-27T00:49:42;12.90;99.90
1411;DHT22;700;51.906;8.404;2023-05-27T00:54:44;12.80;99.90
1411;DHT22;700;51.906;8.404;2023-05-27T00:59:47;12.80;99.90
1411;DHT22;700;51.906;8.404;2023-05-27T01:04:50;12.70;99.90
1411;DHT22;700;51.906;8.404;2023-05-27T01:10:03;12.70;99.90
1411;DHT22;700;51.906;8.404;2023-05-27T01:15:10;12.70;99.90
1411;DHT22;700;51.906;8.404;2023-05-27T01:20:12;12.70;99.90
1411;DHT22;700;51.906;8.404;2023-05-27T01:25:16;12.60;99.90
1411;DHT22;700;51.906;8.404;2023-05-27T01:30:19;12.60;99.90
1411;DHT22;700;51.906;8.404;2023-05-27T01:40:43;12.60;99.90
1411;DHT22;700;51.906;8.404;2023-05-27T01:45:44;12.60;99.90
1411;DHT22;700;51.906;8.404;2023-05-27T01:50:45;12.60;99.90
1411;DHT22;700;51.906;8.404;2023-05-27T01:55:48;12.60;99.90
1411;DHT22;700;51.906;8.404;2023-05-27T02:00:53;12.50;99.90
1411;DHT22;700;51.906;8.404;2023-05-27T02:05:54;12.30;99.90
1411;DHT22;700;51.906;8.404;2023-05-27T02:10:57;12.20;99.90
1411;DHT22;700;51.906;8.404;2023-05-27T02:15:57;12.30;99.90
1411;DHT22;700;51.906;8.404;2023-05-27T02:20:58;12.20;99.90
1411;DHT22;700;51.906;8.404;2023-05-27T02:26:01;12.20;99.90
1411;DHT22;700;51.906;8.404;2023-05-27T02:31:02;12.20;99.90
1411;DHT22;700;51.906;8.404;2023-05-27T02:36:03;12.10;99.90
1411;DHT22;700;51.906;8.404;2023-05-27T02:41:03;12.10;99.90
1411;DHT22;700;51.906;8.404;2023-05-27T02:46:06;12.00;99.90
1411;DHT22;700;51.906;8.404;2023-05-27T02:51:10;11.90;99.90
1411;DHT22;700;51.906;8.404;2023-05-27T02:56:10;12.00;99.90
1411;DHT22;700;51.906;8.404;2023-05-27T03:01:13;11.80;99.90
1411;DHT22;700;51.906;8.404;2023-05-27T03:06:17;11.70;99.90
1411;DHT22;700;51.906;8.404;2023-05-27T03:11:17;11.60;99.90
1411;DHT22;700;51.906;8.404;2023-05-27T03:16:20;11.50;99.90
1411;DHT22;700;51.906;8.404;2023-05-27T03:21:25;11.40;99.90
1411;DHT22;700;51.906;8.404;2023-05-27T03:26:25;11.40;99.90
1411;DHT22;700;51.906;8.404;2023-05-27T03:31:28;11.40;99.90
1411;DHT22;700;51.906;8.404;2023-05-27T03:36:31;11.40;99.90
1411;DHT22;700;51.906;8.404;2023-05-27T03:41:32;11.30;99.90
1411;DHT22;700;51.906;8.404;2023-05-27T03:46:34;11.40;99.90
1411;DHT22;700;51.906;8.404;2023-05-27T03:51:37;11.30;99.90
1411;DHT22;700;51.906;8.404;2023-05-27T03:56:40;11.20;99.90
1411;DHT22;700;51.906;8.404;2023-05-27T04:01:46;11.30;99.90
1411;DHT22;700;51.906;8.404;2023-05-27T04:06:49;11.50;99.90
1411;DHT22;700;51.906;8.404;2023-05-27T04:11:49;11.60;99.90
1411;DHT22;700;51.906;8.404;2023-05-27T04:16:50;11.50;99.90
1411;DHT22;700;51.906;8.404;2023-05-27T04:21:53;11.50;99.90
1411;DHT22;700;51.906;8.404;2023-05-27T04:26:54;11.60;99.90
1411;DHT22;700;51.906;8.404;2023-05-27T04:31:56;11.90;99.90
1411;DHT22;700;51.906;8.404;2023-05-27T04:36:57;12.00;99.90
1411;DHT22;700;51.906;8.404;2023-05-27T04:42:00;12.00;99.90
1411;DHT22;700;51.906;8.404;2023-05-27T04:47:02;12.20;99.90
1411;DHT22;700;51.906;8.404;2023-05-27T04:52:04;12.10;99.90
1411;DHT22;700;51.906;8.404;2023-05-27T04:57:07;12.20;99.90
1411;DHT22;700;51.906;8.404;2023-05-27T05:02:08;12.30;99.90
1411;DHT22;700;51.906;8.404;2023-05-27T05:07:21;12.40;99.90
1411;DHT22;700;51.906;8.404;2023-05-27T05:12:22;12.60;99.90
1411;DHT22;700;51.906;8.404;2023-05-27T05:17:28;12.70;99.90
1411;DHT22;700;51.906;8.404;2023-05-27T05:22:31;12.80;99.90
1411;DHT22;700;51.906;8.404;2023-05-27T05:27:36;12.70;99.90
1411;DHT22;700;51.906;8.404;2023-05-27T05:32:37;12.90;99.90
1411;DHT22;700;51.906;8.404;2023-05-27T05:37:40;12.90;99.90
1411;DHT22;700;51.906;8.404;2023-05-27T05:42:41;13.10;99.90
1411;DHT22;700;51.906;8.404;2023-05-27T05:47:41;13.30;99.90
1411;DHT22;700;51.906;8.404;2023-05-27T05:52:44;13.40;99.90
1411;DHT22;700;51.906;8.404;2023-05-27T05:57:45;13.60;99.90
1411;DHT22;700;51.906;8.404;2023-05-27T06:02:48;13.70;99.90
1411;DHT22;700;51.906;8.404;2023-05-27T06:07:49;13.50;99.90
1411;DHT22;700;51.906;8.404;2023-05-27T06:12:49;13.90;99.90
1411;DHT22;700;51.906;8.404;2023-05-27T06:17:50;14.10;99.90
1411;DHT22;700;51.906;8.404;2023-05-27T06:22:50;14.40;99.90
1411;DHT22;700;51.906;8.404;2023-05-27T06:27:51;14.70;99.90
1411;DHT22;700;51.906;8.404;2023-05-27T06:32:54;14.70;99.90
1411;DHT22;700;51.906;8.404;2023-05-27T06:37:55;14.70;99.90
1411;DHT22;700;51.906;8.404;2023-05-27T06:42:55;15.10;99.90
1411;DHT22;700;51.906;8.404;2023-05-27T06:48:01;15.30;99.90
1411;DHT22;700;51.906;8.404;2023-05-27T06:53:01;15.60;99.90
1411;DHT22;700;51.906;8.404;2023-05-27T06:58:02;15.40;99.90
1411;DHT22;700;51.906;8.404;2023-05-27T07:03:05;15.90;99.90
1411;DHT22;700;51.906;8.404;2023-05-27T07:08:07;16.20;99.90
1411;DHT22;700;51.906;8.404;2023-05-27T07:13:08;16.30;99.90
1411;DHT22;700;51.906;8.404;2023-05-27T07:18:09;16.60;99.90
1411;DHT22;700;51.906;8.404;2023-05-27T07:23:12;16.40;99.90
1411;DHT22;700;51.906;8.404;2023-05-27T07:28:12;16.70;99.90
1411;DHT22;700;51.906;8.404;2023-05-27T07:33:13;17.00;99.90
1411;DHT22;700;51.906;8.404;2023-05-27T07:38:16;17.20;99.90
1411;DHT22;700;51.906;8.404;2023-05-27T07:43:17;17.60;99.90
1411;DHT22;700;51.906;8.404;2023-05-27T07:48:17;17.90;99.90
1411;DHT22;700;51.906;8.404;2023-05-27T07:53:21;17.90;99.90
1411;DHT22;700;51.906;8.404;2023-05-27T07:58:24;18.00;99.90
1411;DHT22;700;51.906;8.404;2023-05-27T08:03:24;18.30;99.90
1411;DHT22;700;51.906;8.404;2023-05-27T08:08:28;18.30;99.90
1411;DHT22;700;51.906;8.404;2023-05-27T08:13:28;18.40;99.90
1411;DHT22;700;51.906;8.404;2023-05-27T08:18:29;18.80;99.90
1411;DHT22;700;51.906;8.404;2023-05-27T08:23:32;19.00;99.90
1411;DHT22;700;51.906;8.404;2023-05-27T08:28:32;19.40;99.90
1411;DHT22;700;51.906;8.404;2023-05-27T08:33:37;19.50;99.90
1411;DHT22;700;51.906;8.404;2023-05-27T08:38:37;19.60;99.90
1411;DHT22;700;51.906;8.404;2023-05-27T08:43:41;19.90;99.90
1411;DHT22;700;51.906;8.404;2023-05-27T08:48:43;20.10;99.90
1411;DHT22;700;51.906;8.404;2023-05-27T08:53:43;20.10;99.90
1411;DHT22;700;51.906;8.404;2023-05-27T08:58:44;20.00;99.90
1411;DHT22;700;51.906;8.404;2023-05-27T09:03:48;20.10;99.90
1411;DHT22;700;51.906;8.404;2023-05-27T09:08:48;20.60;99.90
1411;DHT22;700;51.906;8.404;2023-05-27T09:13:49;20.60;99.90
1411;DHT22;700;51.906;8.404;2023-05-27T09:18:55;21.20;99.90
1411;DHT22;700;51.906;8.404;2023-05-27T09:23:56;22.40;99.90
1411;DHT22;700;51.906;8.404;2023-05-27T09:28:58;23.10;98.80
1411;DHT22;700;51.906;8.404;2023-05-27T09:34:09;24.60;98.10
1411;DHT22;700;51.906;8.404;2023-05-27T09:39:17;26.50;91.40
1411;DHT22;700;51.906;8.404;2023-05-27T09:44:19;27.60;82.90
1411;DHT22;700;51.906;8.404;2023-05-27T09:49:25;29.70;71.50
1411;DHT22;700;51.906;8.404;2023-05-27T09:54:31;30.70;67.50
1411;DHT22;700;51.906;8.404;2023-05-27T09:59:37;32.80;56.40
1411;DHT22;700;51.906;8.404;2023-05-27T10:04:42;35.60;49.50
1411;DHT22;700;51.906;8.404;2023-05-27T10:09:44;38.50;41.30
1411;DHT22;700;51.906;8.404;2023-05-27T10:14:45;39.90;34.80
1411;DHT22;700;51.906;8.404;2023-05-27T10:19:56;40.40;34.60
1411;DHT22;700;51.906;8.404;2023-05-27T10:25:12;42.60;30.70
1411;DHT22;700;51.906;8.404;2023-05-27T10:30:15;44.00;26.60
1411;DHT22;700;51.906;8.404;2023-05-27T10:35:16;43.40;27.50
1411;DHT22;700;51.906;8.404;2023-05-27T10:40:24;44.00;27.00
1411;DHT22;700;51.906;8.404;2023-05-27T10:45:32;44.80;26.00
1411;DHT22;700;51.906;8.404;2023-05-27T10:50:34;46.10;24.50
1411;DHT22;700;51.906;8.404;2023-05-27T10:55:37;46.20;23.80
1411;DHT22;700;51.906;8.404;2023-05-27T11:00:45;47.40;22.90
1411;DHT22;700;51.906;8.404;2023-05-27T11:06:08;47.70;22.00
1411;DHT22;700;51.906;8.404;2023-05-27T11:11:11;47.40;21.50
1411;DHT22;700;51.906;8.404;2023-05-27T11:16:13;47.80;20.90
1411;DHT22;700;51.906;8.404;2023-05-27T11:21:15;49.00;20.90
1411;DHT22;700;51.906;8.404;2023-05-27T11:26:22;49.80;19.60
1411;DHT22;700;51.906;8.404;2023-05-27T11:31:30;50.50;19.40
1411;DHT22;700;51.906;8.404;2023-05-27T11:36:31;51.00;18.60
1411;DHT22;700;51.906;8.404;2023-05-27T11:41:32;49.60;19.30
1411;DHT22;700;51.906;8.404;2023-05-27T11:46:43;50.50;19.60
1411;DHT22;700;51.906;8.404;2023-05-27T11:51:46;50.30;18.30
1411;DHT22;700;51.906;8.404;2023-05-27T11:56:54;47.70;19.60
1411;DHT22;700;51.906;8.404;2023-05-27T12:01:55;49.00;19.10
1411;DHT22;700;51.906;8.404;2023-05-27T12:07:00;49.80;18.50
1411;DHT22;700;51.906;8.404;2023-05-27T12:12:03;50.30;18.30
1411;DHT22;700;51.906;8.404;2023-05-27T12:17:05;48.40;17.80
1411;DHT22;700;51.906;8.404;2023-05-27T12:22:06;49.60;19.10
1411;DHT22;700;51.906;8.404;2023-05-27T12:27:06;49.20;18.60
1411;DHT22;700;51.906;8.404;2023-05-27T12:32:12;48.10;18.70
1411;DHT22;700;51.906;8.404;2023-05-27T12:37:13;48.50;18.40
1411;DHT22;700;51.906;8.404;2023-05-27T12:42:13;49.00;18.60
1411;DHT22;700;51.906;8.404;2023-05-27T12:47:16;48.80;19.10
1411;DHT22;700;51.906;8.404;2023-05-27T12:52:17;49.40;18.80
1411;DHT22;700;51.906;8.404;2023-05-27T12:57:20;48.20;19.20
1411;DHT22;700;51.906;8.404;2023-05-27T13:02:23;47.80;19.00
1411;DHT22;700;51.906;8.404;2023-05-27T13:07:24;47.30;20.00
1411;DHT22;700;51.906;8.404;2023-05-27T13:12:25;45.00;21.80
1411;DHT22;700;51.906;8.404;2023-05-27T13:17:28;44.40;21.40
1411;DHT22;700;51.906;8.404;2023-05-27T13:22:28;43.60;22.60
1411;DHT22;700;51.906;8.404;2023-05-27T13:27:31;43.10;23.20
1411;DHT22;700;51.906;8.404;2023-05-27T13:32:32;42.90;22.30
1411;DHT22;700;51.906;8.404;2023-05-27T13:37:33;40.40;23.20
1411;DHT22;700;51.906;8.404;2023-05-27T13:42:36;39.40;25.50
1411;DHT22;700;51.906;8.404;2023-05-27T13:47:39;37.70;27.20
1411;DHT22;700;51.906;8.404;2023-05-27T13:52:44;35.50;28.80
1411;DHT22;700;51.906;8.404;2023-05-27T13:57:48;34.10;29.60
1411;DHT22;700;51.906;8.404;2023-05-27T14:02:49;33.40;31.90
1411;DHT22;700;51.906;8.404;2023-05-27T14:07:49;32.40;31.20
1411;DHT22;700;51.906;8.404;2023-05-27T14:12:52;31.50;33.20
1411;DHT22;700;51.906;8.404;2023-05-27T14:17:56;31.00;33.80
1411;DHT22;700;51.906;8.404;2023-05-27T14:22:57;30.50;35.90
1411;DHT22;700;51.906;8.404;2023-05-27T14:28:03;30.50;35.90
1411;DHT22;700;51.906;8.404;2023-05-27T14:33:06;30.00;37.00
1411;DHT22;700;51.906;8.404;2023-05-27T14:38:10;30.30;36.70
1411;DHT22;700;51.906;8.404;2023-05-27T14:43:11;30.40;36.60
1411;DHT22;700;51.906;8.404;2023-05-27T14:48:14;30.00;36.40
1411;DHT22;700;51.906;8.404;2023-05-27T14:53:15;29.60;37.70
1411;DHT22;700;51.906;8.404;2023-05-27T14:58:16;29.10;39.10
1411;DHT22;700;51.906;8.404;2023-05-27T15:03:18;28.90;39.70
1411;DHT22;700;51.906;8.404;2023-05-27T15:08:19;28.50;39.80
1411;DHT22;700;51.906;8.404;2023-05-27T15:13:20;28.60;40.00
1411;DHT22;700;51.906;8.404;2023-05-27T15:18:21;28.60;40.30
1411;DHT22;700;51.906;8.404;2023-05-27T15:23:21;28.70;41.40
1411;DHT22;700;51.906;8.404;2023-05-27T15:28:22;28.50;41.40
1411;DHT22;700;51.906;8.404;2023-05-27T15:33:22;28.30;41.20
1411;DHT22;700;51.906;8.404;2023-05-27T15:38:23;28.10;41.70
1411;DHT22;700;51.906;8.404;2023-05-27T15:43:26;28.20;42.90
1411;DHT22;700;51.906;8.404;2023-05-27T15:48:27;28.00;41.60
1411;DHT22;700;51.906;8.404;2023-05-27T15:53:31;27.80;42.50
1411;DHT22;700;51.906;8.404;2023-05-27T15:58:33;27.50;43.20
1411;DHT22;700;51.906;8.404;2023-05-27T16:03:34;27.40;43.30
1411;DHT22;700;51.906;8.404;2023-05-27T16:08:39;27.00;43.10
1411;DHT22;700;51.906;8.404;2023-05-27T16:13:42;27.10;43.90
1411;DHT22;700;51.906;8.404;2023-05-27T16:18:43;26.50;43.00
1411;DHT22;700;51.906;8.404;2023-05-27T16:23:43;26.50;44.60
1411;DHT22;700;51.906;8.404;2023-05-27T16:28:44;26.70;44.10
1411;DHT22;700;51.906;8.404;2023-05-27T16:33:45;26.60;43.20
1411;DHT22;700;51.906;8.404;2023-05-27T16:38:45;26.40;43.80
1411;DHT22;700;51.906;8.404;2023-05-27T16:43:46;26.50;43.90
1411;DHT22;700;51.906;8.404;2023-05-27T16:48:49;26.50;43.80
1411;DHT22;700;51.906;8.404;2023-05-27T16:53:50;25.90;44.60
1411;DHT22;700;51.906;8.404;2023-05-27T16:58:50;26.00;45.60
1411;DHT22;700;51.906;8.404;2023-05-27T17:03:54;25.90;45.30
1411;DHT22;700;51.906;8.404;2023-05-27T17:08:55;25.80;45.20
1411;DHT22;700;51.906;8.404;2023-05-27T17:13:56;25.90;45.80
1411;DHT22;700;51.906;8.404;2023-05-27T17:18:59;25.80;46.20
1411;DHT22;700;51.906;8.404;2023-05-27T17:24:03;25.80;47.40
1411;DHT22;700;51.906;8.404;2023-05-27T17:29:06;25.50;46.90
1411;DHT22;700;51.906;8.404;2023-05-27T17:34:06;25.10;47.50
1411;DHT22;700;51.906;8.404;2023-05-27T17:39:07;25.10;48.80
1411;DHT22;700;51.906;8.404;2023-05-27T17:44:09;25.10;47.90
1411;DHT22;700;51.906;8.404;2023-05-27T17:49:12;24.90;48.50
1411;DHT22;700;51.906;8.404;2023-05-27T17:54:13;24.80;49.50
1411;DHT22;700;51.906;8.404;2023-05-27T17:59:16;24.50;49.40
1411;DHT22;700;51.906;8.404;2023-05-27T18:04:17;24.30;50.00
1411;DHT22;700;51.906;8.404;2023-05-27T18:09:20;24.00;51.40
1411;DHT22;700;51.906;8.404;2023-05-27T18:14:20;23.80;51.90
1411;DHT22;700;51.906;8.404;2023-05-27T18:19:21;23.80;51.80
1411;DHT22;700;51.906;8.404;2023-05-27T18:24:24;23.50;52.70
1411;DHT22;700;51.906;8.404;2023-05-27T18:29:27;23.30;53.80
1411;DHT22;700;51.906;8.404;2023-05-27T18:34:30;23.20;54.20
1411;DHT22;700;51.906;8.404;2023-05-27T18:39:35;22.90;56.00
1411;DHT22;700;51.906;8.404;2023-05-27T18:44:36;22.80;56.90
1411;DHT22;700;51.906;8.404;2023-05-27T18:49:39;22.50;57.00
1411;DHT22;700;51.906;8.404;2023-05-27T18:54:40;22.40;56.60
1411;DHT22;700;51.906;8.404;2023-05-27T18:59:40;22.20;57.50
1411;DHT22;700;51.906;8.404;2023-05-27T19:04:44;22.00;59.70
1411;DHT22;700;51.906;8.404;2023-05-27T19:09:45;22.00;59.40
1411;DHT22;700;51.906;8.404;2023-05-27T19:14:48;21.70;61.10
1411;DHT22;700;51.906;8.404;2023-05-27T19:19:49;21.60;64.20
1411;DHT22;700;51.906;8.404;2023-05-27T19:24:49;21.40;63.40
1411;DHT22;700;51.906;8.404;2023-05-27T19:29:50;21.20;64.20
1411;DHT22;700;51.906;8.404;2023-05-27T19:34:53;21.10;65.20
1411;DHT22;700;51.906;8.404;2023-05-27T19:39:55;21.00;67.30
1411;DHT22;700;51.906;8.404;2023-05-27T19:44:56;20.80;69.20
1411;DHT22;700;51.906;8.404;2023-05-27T19:49:57;20.70;70.30
1411;DHT22;700;51.906;8.404;2023-05-27T19:55:00;20.40;72.10
1411;DHT22;700;51.906;8.404;2023-05-27T20:00:01;20.30;74.60
1411;DHT22;700;51.906;8.404;2023-05-27T20:05:05;20.20;77.30
1411;DHT22;700;51.906;8.404;2023-05-27T20:10:09;20.00;81.30
1411;DHT22;700;51.906;8.404;2023-05-27T20:15:13;20.00;82.30
1411;DHT22;700;51.906;8.404;2023-05-27T20:20:16;19.70;85.90
1411;DHT22;700;51.906;8.404;2023-05-27T20:25:23;19.70;90.20
1411;DHT22;700;51.906;8.404;2023-05-27T20:30:24;19.50;90.70
1411;DHT22;700;51.906;8.404;2023-05-27T20:35:24;19.50;91.70
1411;DHT22;700;51.906;8.404;2023-05-27T20:40:25;19.30;94.20
1411;DHT22;700;51.906;8.404;2023-05-27T20:45:26;19.20;96.10
1411;DHT22;700;51.906;8.404;2023-05-27T20:50:26;19.20;97.10
1411;DHT22;700;51.906;8.404;2023-05-27T20:55:27;19.00;97.80
1411;DHT22;700;51.906;8.404;2023-05-27T21:00:32;18.80;98.40
1411;DHT22;700;51.906;8.404;2023-05-27T21:05:33;18.80;98.90
1411;DHT22;700;51.906;8.404;2023-05-27T21:10:36;18.70;99.90
1411;DHT22;700;51.906;8.404;2023-05-27T21:15:39;18.70;99.90
1411;DHT22;700;51.906;8.404;2023-05-27T21:20:39;18.70;99.90
1411;DHT22;700;51.906;8.404;2023-05-27T21:25:40;18.60;99.90
1411;DHT22;700;51.906;8.404;2023-05-27T21:30:41;18.50;99.90
1411;DHT22;700;51.906;8.404;2023-05-27T21:35:46;18.40;99.90
1411;DHT22;700;51.906;8.404;2023-05-27T21:40:49;18.30;99.90
1411;DHT22;700;51.906;8.404;2023-05-27T21:45:54;18.20;99.90
1411;DHT22;700;51.906;8.404;2023-05-27T21:50:57;17.90;99.90
1411;DHT22;700;51.906;8.404;2023-05-27T21:56:00;18.00;99.90
1411;DHT22;700;51.906;8.404;2023-05-27T22:01:03;18.00;99.90
1411;DHT22;700;51.906;8.404;2023-05-27T22:06:04;17.90;99.90
1411;DHT22;700;51.906;8.404;2023-05-27T22:11:07;17.70;99.90
1411;DHT22;700;51.906;8.404;2023-05-27T22:16:08;17.70;99.90
1411;DHT22;700;51.906;8.404;2023-05-27T22:21:11;17.70;99.90
1411;DHT22;700;51.906;8.404;2023-05-27T22:26:16;17.60;99.90
1411;DHT22;700;51.906;8.404;2023-05-27T22:31:21;17.60;99.90
1411;DHT22;700;51.906;8.404;2023-05-27T22:36:21;17.60;99.90
1411;DHT22;700;51.906;8.404;2023-05-27T22:41:22;17.30;99.90
1411;DHT22;700;51.906;8.404;2023-05-27T22:46:22;17.30;99.90
1411;DHT22;700;51.906;8.404;2023-05-27T22:51:23;17.30;99.90
1411;DHT22;700;51.906;8.404;2023-05-27T22:56:24;17.10;99.90
1411;DHT22;700;51.906;8.404;2023-05-27T23:01:25;17.10;99.90
1411;DHT22;700;51.906;8.404;2023-05-27T23:06:26;16.90;99.90
1411;DHT22;700;51.906;8.404;2023-05-27T23:11:29;16.80;99.90
1411;DHT22;700;51.906;8.404;2023-05-27T23:16:29;16.70;99.90
1411;DHT22;700;51.906;8.404;2023-05-27T23:21:32;16.50;99.90
1411;DHT22;700;51.906;8.404;2023-05-27T23:26:33;16.40;99.90
1411;DHT22;700;51.906;8.404;2023-05-27T23:31:38;16.30;99.90
1411;DHT22;700;51.906;8.404;2023-05-27T23:36:39;16.20;99.90
1411;DHT22;700;51.906;8.404;2023-05-27T23:41:41;16.10;99.90
1411;DHT22;700;51.906;8.404;2023-05-27T23:46:41;16.00;99.90
1411;DHT22;700;51.906;8.404;2023-05-27T23:51:42;16.00;99.90
1411;DHT22;700;51.906;8.404;2023-05-27T23:56:42;15.90;99.90
